sensor_id;sensor_type;location;lat;lon;timestamp;P1;durP1;ratioP1;P2;durP2;ratioP2
73650;SDS011;61944;52.538;6.108;2023-06-10T00:00:43;6.68;;;4.03;;
73650;SDS011;61944;52.538;6.108;2023-06-10T00:03:09;7.47;;;4.13;;
73650;SDS011;61944;52.538;6.108;2023-06-10T00:05:34;7.07;;;4.75;;
73650;SDS011;61944;52.538;6.108;2023-06-10T00:08:01;9.23;;;4.03;;
73650;SDS011;61944;52.538;6.108;2023-06-10T00:10:32;6.32;;;3.92;;
73650;SDS011;61944;52.538;6.108;2023-06-10T00:13:01;6.38;;;3.70;;
73650;SDS011;61944;52.538;6.108;2023-06-10T00:15:28;6.78;;;3.88;;
73650;SDS011;61944;52.538;6.108;2023-06-10T00:17:54;7.53;;;3.83;;
73650;SDS011;61944;52.538;6.108;2023-06-10T00:20:20;8.00;;;4.18;;
73650;SDS011;61944;52.538;6.108;2023-06-10T00:22:47;6.97;;;4.50;;
73650;SDS011;61944;52.538;6.108;2023-06-10T00:25:13;8.40;;;3.95;;
73650;SDS011;61944;52.538;6.108;2023-06-10T00:27:39;10.05;;;3.90;;
73650;SDS011;61944;52.538;6.108;2023-06-10T00:30:04;8.38;;;3.97;;
73650;SDS011;61944;52.538;6.108;2023-06-10T00:32:32;6.88;;;3.60;;
73650;SDS011;61944;52.538;6.108;2023-06-10T00:35:01;7.07;;;3.30;;
73650;SDS011;61944;52.538;6.108;2023-06-10T00:37:26;10.00;;;4.13;;
73650;SDS011;61944;52.538;6.108;2023-06-10T00:39:53;7.15;;;3.85;;
73650;SDS011;61944;52.538;6.108;2023-06-10T00:42:19;11.38;;;5.68;;
73650;SDS011;61944;52.538;6.108;2023-06-10T00:44:44;6.72;;;4.25;;
73650;SDS011;61944;52.538;6.108;2023-06-10T00:47:10;6.78;;;4.05;;
73650;SDS011;61944;52.538;6.108;2023-06-10T00:49:35;6.35;;;3.53;;
73650;SDS011;61944;52.538;6.108;2023-06-10T00:52:03;9.25;;;4.40;;
73650;SDS011;61944;52.538;6.108;2023-06-10T00:54:30;7.18;;;4.15;;
73650;SDS011;61944;52.538;6.108;2023-06-10T00:56:56;6.57;;;4.03;;
73650;SDS011;61944;52.538;6.108;2023-06-10T00:59:22;11.40;;;4.85;;
73650;SDS011;61944;52.538;6.108;2023-06-10T01:01:48;11.30;;;4.20;;
73650;SDS011;61944;52.538;6.108;2023-06-10T01:04:13;8.75;;;5.38;;
73650;SDS011;61944;52.538;6.108;2023-06-10T01:09:22;8.55;;;4.80;;
73650;SDS011;61944;52.538;6.108;2023-06-10T01:14:40;8.10;;;4.78;;
73650;SDS011;61944;52.538;6.108;2023-06-10T01:17:10;7.40;;;4.72;;
73650;SDS011;61944;52.538;6.108;2023-06-10T01:19:36;7.65;;;4.68;;
73650;SDS011;61944;52.538;6.108;2023-06-10T01:22:01;6.45;;;4.05;;
73650;SDS011;61944;52.538;6.108;2023-06-10T01:24:27;7.75;;;4.78;;
73650;SDS011;61944;52.538;6.108;2023-06-10T01:26:54;7.72;;;3.92;;
73650;SDS011;61944;52.538;6.108;2023-06-10T01:29:42;4.30;;;3.80;;
73650;SDS011;61944;52.538;6.108;2023-06-10T01:32:18;7.47;;;5.25;;
73650;SDS011;61944;52.538;6.108;2023-06-10T01:37:39;7.40;;;3.90;;
73650;SDS011;61944;52.538;6.108;2023-06-10T01:40:10;5.97;;;4.13;;
73650;SDS011;61944;52.538;6.108;2023-06-10T01:42:37;6.68;;;4.10;;
73650;SDS011;61944;52.538;6.108;2023-06-10T01:45:02;7.43;;;4.68;;
73650;SDS011;61944;52.538;6.108;2023-06-10T01:47:28;6.90;;;4.40;;
73650;SDS011;61944;52.538;6.108;2023-06-10T01:49:54;6.88;;;4.20;;
73650;SDS011;61944;52.538;6.108;2023-06-10T01:52:19;5.80;;;3.55;;
73650;SDS011;61944;52.538;6.108;2023-06-10T01:54:45;7.32;;;4.30;;
73650;SDS011;61944;52.538;6.108;2023-06-10T01:57:10;7.82;;;4.63;;
73650;SDS011;61944;52.538;6.108;2023-06-10T01:59:35;8.10;;;4.75;;
73650;SDS011;61944;52.538;6.108;2023-06-10T02:02:02;8.02;;;4.45;;
73650;SDS011;61944;52.538;6.108;2023-06-10T02:04:28;6.55;;;4.88;;
73650;SDS011;61944;52.538;6.108;2023-06-10T02:06:53;8.30;;;3.92;;
73650;SDS011;61944;52.538;6.108;2023-06-10T02:09:20;6.63;;;4.07;;
73650;SDS011;61944;52.538;6.108;2023-06-10T02:11:47;7.60;;;3.78;;
73650;SDS011;61944;52.538;6.108;2023-06-10T02:14:13;9.02;;;4.82;;
73650;SDS011;61944;52.538;6.108;2023-06-10T02:16:38;8.38;;;3.50;;
73650;SDS011;61944;52.538;6.108;2023-06-10T02:19:04;6.88;;;3.92;;
73650;SDS011;61944;52.538;6.108;2023-06-10T02:21:31;6.68;;;4.13;;
73650;SDS011;61944;52.538;6.108;2023-06-10T02:23:59;5.07;;;4.10;;
73650;SDS011;61944;52.538;6.108;2023-06-10T02:26:24;7.07;;;4.15;;
73650;SDS011;61944;52.538;6.108;2023-06-10T02:28:50;7.45;;;5.00;;
73650;SDS011;61944;52.538;6.108;2023-06-10T02:31:16;8.13;;;4.65;;
73650;SDS011;61944;52.538;6.108;2023-06-10T02:33:42;8.60;;;4.35;;
73650;SDS011;61944;52.538;6.108;2023-06-10T02:36:09;8.43;;;4.45;;
73650;SDS011;61944;52.538;6.108;2023-06-10T02:38:38;6.65;;;4.32;;
73650;SDS011;61944;52.538;6.108;2023-06-10T02:41:04;7.88;;;4.40;;
73650;SDS011;61944;52.538;6.108;2023-06-10T02:43:30;8.13;;;4.72;;
73650;SDS011;61944;52.538;6.108;2023-06-10T02:45:55;8.15;;;5.20;;
73650;SDS011;61944;52.538;6.108;2023-06-10T02:48:20;9.00;;;4.55;;
73650;SDS011;61944;52.538;6.108;2023-06-10T02:50:46;8.07;;;4.65;;
73650;SDS011;61944;52.538;6.108;2023-06-10T02:53:11;8.55;;;5.05;;
73650;SDS011;61944;52.538;6.108;2023-06-10T02:55:37;9.20;;;5.03;;
73650;SDS011;61944;52.538;6.108;2023-06-10T02:58:04;9.18;;;5.43;;
73650;SDS011;61944;52.538;6.108;2023-06-10T03:00:30;12.05;;;5.57;;
73650;SDS011;61944;52.538;6.108;2023-06-10T03:02:55;9.60;;;5.13;;
73650;SDS011;61944;52.538;6.108;2023-06-10T03:05:22;7.93;;;5.07;;
73650;SDS011;61944;52.538;6.108;2023-06-10T03:07:48;8.32;;;4.18;;
73650;SDS011;61944;52.538;6.108;2023-06-10T03:10:14;9.15;;;5.70;;
73650;SDS011;61944;52.538;6.108;2023-06-10T03:12:40;7.63;;;5.43;;
73650;SDS011;61944;52.538;6.108;2023-06-10T03:15:05;11.43;;;5.03;;
73650;SDS011;61944;52.538;6.108;2023-06-10T03:17:31;10.30;;;5.45;;
73650;SDS011;61944;52.538;6.108;2023-06-10T03:19:57;10.18;;;5.88;;
73650;SDS011;61944;52.538;6.108;2023-06-10T03:22:22;8.43;;;5.15;;
73650;SDS011;61944;52.538;6.108;2023-06-10T03:24:47;8.80;;;5.18;;
73650;SDS011;61944;52.538;6.108;2023-06-10T03:27:15;12.40;;;5.13;;
73650;SDS011;61944;52.538;6.108;2023-06-10T03:29:41;8.90;;;5.80;;
73650;SDS011;61944;52.538;6.108;2023-06-10T03:32:07;8.38;;;4.53;;
73650;SDS011;61944;52.538;6.108;2023-06-10T03:34:32;9.07;;;5.68;;
73650;SDS011;61944;52.538;6.108;2023-06-10T03:36:58;11.88;;;5.97;;
73650;SDS011;61944;52.538;6.108;2023-06-10T03:39:25;8.63;;;5.20;;
73650;SDS011;61944;52.538;6.108;2023-06-10T03:41:53;9.73;;;6.25;;
73650;SDS011;61944;52.538;6.108;2023-06-10T03:44:19;12.70;;;6.10;;
73650;SDS011;61944;52.538;6.108;2023-06-10T03:46:48;9.55;;;5.22;;
73650;SDS011;61944;52.538;6.108;2023-06-10T03:49:13;9.05;;;5.65;;
73650;SDS011;61944;52.538;6.108;2023-06-10T03:51:40;10.60;;;5.43;;
73650;SDS011;61944;52.538;6.108;2023-06-10T03:54:08;7.97;;;5.22;;
73650;SDS011;61944;52.538;6.108;2023-06-10T03:56:33;8.63;;;4.55;;
73650;SDS011;61944;52.538;6.108;2023-06-10T03:59:00;11.13;;;5.13;;
73650;SDS011;61944;52.538;6.108;2023-06-10T04:01:25;9.70;;;5.38;;
73650;SDS011;61944;52.538;6.108;2023-06-10T04:03:51;12.02;;;5.45;;
73650;SDS011;61944;52.538;6.108;2023-06-10T04:06:19;11.30;;;5.45;;
73650;SDS011;61944;52.538;6.108;2023-06-10T04:08:44;10.98;;;6.43;;
73650;SDS011;61944;52.538;6.108;2023-06-10T04:11:10;5.78;;;4.28;;
73650;SDS011;61944;52.538;6.108;2023-06-10T04:13:35;7.38;;;4.70;;
73650;SDS011;61944;52.538;6.108;2023-06-10T04:16:01;10.43;;;5.82;;
73650;SDS011;61944;52.538;6.108;2023-06-10T04:18:27;7.35;;;4.70;;
73650;SDS011;61944;52.538;6.108;2023-06-10T04:20:53;11.43;;;5.75;;
73650;SDS011;61944;52.538;6.108;2023-06-10T04:23:18;8.63;;;4.43;;
73650;SDS011;61944;52.538;6.108;2023-06-10T04:25:44;7.93;;;5.43;;
73650;SDS011;61944;52.538;6.108;2023-06-10T04:28:09;10.77;;;6.18;;
73650;SDS011;61944;52.538;6.108;2023-06-10T04:30:35;16.10;;;5.78;;
73650;SDS011;61944;52.538;6.108;2023-06-10T04:33:00;11.15;;;5.57;;
73650;SDS011;61944;52.538;6.108;2023-06-10T04:35:25;9.02;;;5.63;;
73650;SDS011;61944;52.538;6.108;2023-06-10T04:37:52;8.90;;;4.95;;
73650;SDS011;61944;52.538;6.108;2023-06-10T04:40:18;8.13;;;5.53;;
73650;SDS011;61944;52.538;6.108;2023-06-10T04:42:44;7.72;;;5.72;;
73650;SDS011;61944;52.538;6.108;2023-06-10T04:45:09;11.35;;;5.80;;
73650;SDS011;61944;52.538;6.108;2023-06-10T04:47:35;13.88;;;5.25;;
73650;SDS011;61944;52.538;6.108;2023-06-10T04:50:00;6.85;;;4.80;;
73650;SDS011;61944;52.538;6.108;2023-06-10T04:52:27;11.63;;;5.57;;
73650;SDS011;61944;52.538;6.108;2023-06-10T04:54:53;10.10;;;5.90;;
73650;SDS011;61944;52.538;6.108;2023-06-10T04:57:18;11.63;;;6.00;;
73650;SDS011;61944;52.538;6.108;2023-06-10T04:59:45;10.70;;;5.63;;
73650;SDS011;61944;52.538;6.108;2023-06-10T05:02:10;7.03;;;5.07;;
73650;SDS011;61944;52.538;6.108;2023-06-10T05:04:36;9.90;;;5.95;;
73650;SDS011;61944;52.538;6.108;2023-06-10T05:07:01;10.98;;;5.30;;
73650;SDS011;61944;52.538;6.108;2023-06-10T05:09:26;8.52;;;5.28;;
73650;SDS011;61944;52.538;6.108;2023-06-10T05:11:52;9.07;;;5.40;;
73650;SDS011;61944;52.538;6.108;2023-06-10T05:14:18;11.93;;;5.18;;
73650;SDS011;61944;52.538;6.108;2023-06-10T05:16:45;6.80;;;4.97;;
73650;SDS011;61944;52.538;6.108;2023-06-10T05:19:11;8.43;;;5.57;;
73650;SDS011;61944;52.538;6.108;2023-06-10T05:21:37;11.55;;;6.20;;
73650;SDS011;61944;52.538;6.108;2023-06-10T05:24:02;8.95;;;5.47;;
73650;SDS011;61944;52.538;6.108;2023-06-10T05:26:28;9.88;;;5.72;;
73650;SDS011;61944;52.538;6.108;2023-06-10T05:28:54;10.45;;;5.10;;
73650;SDS011;61944;52.538;6.108;2023-06-10T05:31:19;8.32;;;5.22;;
73650;SDS011;61944;52.538;6.108;2023-06-10T05:33:44;9.00;;;5.13;;
73650;SDS011;61944;52.538;6.108;2023-06-10T05:36:10;8.32;;;5.05;;
73650;SDS011;61944;52.538;6.108;2023-06-10T05:38:35;12.52;;;6.32;;
73650;SDS011;61944;52.538;6.108;2023-06-10T05:41:01;10.40;;;5.50;;
73650;SDS011;61944;52.538;6.108;2023-06-10T05:43:26;8.82;;;5.47;;
73650;SDS011;61944;52.538;6.108;2023-06-10T05:45:52;10.73;;;5.07;;
73650;SDS011;61944;52.538;6.108;2023-06-10T05:48:17;8.43;;;5.18;;
73650;SDS011;61944;52.538;6.108;2023-06-10T05:50:44;9.18;;;4.90;;
73650;SDS011;61944;52.538;6.108;2023-06-10T05:53:13;10.18;;;5.75;;
73650;SDS011;61944;52.538;6.108;2023-06-10T05:55:44;10.20;;;4.90;;
73650;SDS011;61944;52.538;6.108;2023-06-10T05:58:11;7.60;;;5.70;;
73650;SDS011;61944;52.538;6.108;2023-06-10T06:00:40;8.02;;;5.55;;
73650;SDS011;61944;52.538;6.108;2023-06-10T06:03:06;8.95;;;5.00;;
73650;SDS011;61944;52.538;6.108;2023-06-10T06:05:33;8.70;;;5.47;;
73650;SDS011;61944;52.538;6.108;2023-06-10T06:08:03;9.07;;;5.03;;
73650;SDS011;61944;52.538;6.108;2023-06-10T06:10:29;9.63;;;5.57;;
73650;SDS011;61944;52.538;6.108;2023-06-10T06:12:54;9.00;;;5.10;;
73650;SDS011;61944;52.538;6.108;2023-06-10T06:15:20;12.32;;;5.80;;
73650;SDS011;61944;52.538;6.108;2023-06-10T06:17:45;8.80;;;5.05;;
73650;SDS011;61944;52.538;6.108;2023-06-10T06:20:11;10.10;;;5.47;;
73650;SDS011;61944;52.538;6.108;2023-06-10T06:22:36;9.45;;;5.07;;
73650;SDS011;61944;52.538;6.108;2023-06-10T06:25:01;8.70;;;5.68;;
73650;SDS011;61944;52.538;6.108;2023-06-10T06:27:27;10.38;;;5.38;;
73650;SDS011;61944;52.538;6.108;2023-06-10T06:29:53;8.25;;;5.35;;
73650;SDS011;61944;52.538;6.108;2023-06-10T06:32:18;7.68;;;4.80;;
73650;SDS011;61944;52.538;6.108;2023-06-10T06:34:44;7.70;;;5.32;;
73650;SDS011;61944;52.538;6.108;2023-06-10T06:37:09;11.07;;;5.35;;
73650;SDS011;61944;52.538;6.108;2023-06-10T06:39:38;10.48;;;5.78;;
73650;SDS011;61944;52.538;6.108;2023-06-10T06:42:03;10.02;;;6.03;;
73650;SDS011;61944;52.538;6.108;2023-06-10T06:44:29;7.65;;;5.35;;
73650;SDS011;61944;52.538;6.108;2023-06-10T06:46:54;8.32;;;5.20;;
73650;SDS011;61944;52.538;6.108;2023-06-10T06:49:20;9.05;;;4.97;;
73650;SDS011;61944;52.538;6.108;2023-06-10T06:51:45;9.07;;;5.82;;
73650;SDS011;61944;52.538;6.108;2023-06-10T06:54:10;7.88;;;4.32;;
73650;SDS011;61944;52.538;6.108;2023-06-10T06:56:37;8.50;;;5.30;;
73650;SDS011;61944;52.538;6.108;2023-06-10T06:59:03;11.07;;;4.93;;
73650;SDS011;61944;52.538;6.108;2023-06-10T07:01:29;12.88;;;5.22;;
73650;SDS011;61944;52.538;6.108;2023-06-10T07:03:55;8.05;;;6.13;;
73650;SDS011;61944;52.538;6.108;2023-06-10T07:06:20;8.48;;;5.25;;
73650;SDS011;61944;52.538;6.108;2023-06-10T07:08:45;10.20;;;4.95;;
73650;SDS011;61944;52.538;6.108;2023-06-10T07:11:11;7.88;;;4.38;;
73650;SDS011;61944;52.538;6.108;2023-06-10T07:13:36;7.50;;;5.35;;
73650;SDS011;61944;52.538;6.108;2023-06-10T07:16:01;8.05;;;5.28;;
73650;SDS011;61944;52.538;6.108;2023-06-10T07:18:27;8.98;;;4.90;;
73650;SDS011;61944;52.538;6.108;2023-06-10T07:20:52;7.47;;;4.80;;
73650;SDS011;61944;52.538;6.108;2023-06-10T07:23:18;11.98;;;5.30;;
73650;SDS011;61944;52.538;6.108;2023-06-10T07:25:43;7.32;;;3.92;;
73650;SDS011;61944;52.538;6.108;2023-06-10T07:28:08;9.02;;;5.70;;
73650;SDS011;61944;52.538;6.108;2023-06-10T07:30:34;9.40;;;4.60;;
73650;SDS011;61944;52.538;6.108;2023-06-10T07:32:59;11.13;;;6.00;;
73650;SDS011;61944;52.538;6.108;2023-06-10T07:35:24;9.85;;;5.57;;
73650;SDS011;61944;52.538;6.108;2023-06-10T07:37:50;9.82;;;5.47;;
73650;SDS011;61944;52.538;6.108;2023-06-10T07:40:15;5.78;;;4.20;;
73650;SDS011;61944;52.538;6.108;2023-06-10T07:42:41;10.60;;;5.10;;
73650;SDS011;61944;52.538;6.108;2023-06-10T07:45:07;6.82;;;4.40;;
73650;SDS011;61944;52.538;6.108;2023-06-10T07:47:33;7.60;;;4.22;;
73650;SDS011;61944;52.538;6.108;2023-06-10T07:49:58;10.43;;;5.05;;
73650;SDS011;61944;52.538;6.108;2023-06-10T07:52:24;8.82;;;4.88;;
73650;SDS011;61944;52.538;6.108;2023-06-10T07:54:50;9.32;;;4.70;;
73650;SDS011;61944;52.538;6.108;2023-06-10T07:57:17;7.03;;;4.70;;
73650;SDS011;61944;52.538;6.108;2023-06-10T07:59:42;6.85;;;4.85;;
73650;SDS011;61944;52.538;6.108;2023-06-10T08:02:09;8.10;;;4.60;;
73650;SDS011;61944;52.538;6.108;2023-06-10T08:04:34;8.07;;;5.03;;
73650;SDS011;61944;52.538;6.108;2023-06-10T08:07:00;12.63;;;4.60;;
73650;SDS011;61944;52.538;6.108;2023-06-10T08:09:26;8.07;;;4.68;;
73650;SDS011;61944;52.538;6.108;2023-06-10T08:11:51;13.52;;;4.93;;
73650;SDS011;61944;52.538;6.108;2023-06-10T08:14:16;9.98;;;4.30;;
73650;SDS011;61944;52.538;6.108;2023-06-10T08:16:42;9.68;;;4.30;;
73650;SDS011;61944;52.538;6.108;2023-06-10T08:19:08;8.30;;;4.70;;
73650;SDS011;61944;52.538;6.108;2023-06-10T08:21:34;7.32;;;4.30;;
73650;SDS011;61944;52.538;6.108;2023-06-10T08:24:01;9.10;;;4.50;;
73650;SDS011;61944;52.538;6.108;2023-06-10T08:26:27;8.93;;;4.15;;
73650;SDS011;61944;52.538;6.108;2023-06-10T08:28:52;7.78;;;5.00;;
73650;SDS011;61944;52.538;6.108;2023-06-10T08:31:19;8.25;;;4.53;;
73650;SDS011;61944;52.538;6.108;2023-06-10T08:33:44;8.20;;;4.50;;
73650;SDS011;61944;52.538;6.108;2023-06-10T08:36:09;6.05;;;4.20;;
73650;SDS011;61944;52.538;6.108;2023-06-10T08:38:35;6.90;;;3.95;;
73650;SDS011;61944;52.538;6.108;2023-06-10T08:41:00;9.25;;;5.13;;
73650;SDS011;61944;52.538;6.108;2023-06-10T08:43:30;5.75;;;4.20;;
73650;SDS011;61944;52.538;6.108;2023-06-10T08:48:25;6.55;;;3.85;;
73650;SDS011;61944;52.538;6.108;2023-06-10T08:50:54;6.25;;;4.22;;
73650;SDS011;61944;52.538;6.108;2023-06-10T08:53:22;6.93;;;4.28;;
73650;SDS011;61944;52.538;6.108;2023-06-10T08:55:51;6.63;;;4.50;;
73650;SDS011;61944;52.538;6.108;2023-06-10T08:58:17;7.38;;;4.88;;
73650;SDS011;61944;52.538;6.108;2023-06-10T09:00:44;4.80;;;3.85;;
73650;SDS011;61944;52.538;6.108;2023-06-10T09:03:10;7.18;;;4.30;;
73650;SDS011;61944;52.538;6.108;2023-06-10T09:05:36;8.20;;;3.65;;
73650;SDS011;61944;52.538;6.108;2023-06-10T09:08:02;6.38;;;3.88;;
73650;SDS011;61944;52.538;6.108;2023-06-10T09:10:28;6.78;;;3.55;;
73650;SDS011;61944;52.538;6.108;2023-06-10T09:12:54;11.65;;;4.22;;
73650;SDS011;61944;52.538;6.108;2023-06-10T09:15:19;6.78;;;3.90;;
73650;SDS011;61944;52.538;6.108;2023-06-10T09:17:45;6.32;;;4.15;;
73650;SDS011;61944;52.538;6.108;2023-06-10T09:20:11;6.80;;;4.10;;
73650;SDS011;61944;52.538;6.108;2023-06-10T09:22:36;7.47;;;4.53;;
73650;SDS011;61944;52.538;6.108;2023-06-10T09:25:10;5.15;;;4.13;;
73650;SDS011;61944;52.538;6.108;2023-06-10T09:30:27;5.75;;;3.97;;
73650;SDS011;61944;52.538;6.108;2023-06-10T09:32:55;8.45;;;4.10;;
73650;SDS011;61944;52.538;6.108;2023-06-10T09:35:25;6.32;;;3.90;;
73650;SDS011;61944;52.538;6.108;2023-06-10T09:37:51;9.40;;;4.82;;
73650;SDS011;61944;52.538;6.108;2023-06-10T09:40:18;9.55;;;3.88;;
73650;SDS011;61944;52.538;6.108;2023-06-10T09:42:44;5.55;;;3.67;;
73650;SDS011;61944;52.538;6.108;2023-06-10T09:45:09;8.23;;;3.88;;
73650;SDS011;61944;52.538;6.108;2023-06-10T09:47:35;6.03;;;3.60;;
73650;SDS011;61944;52.538;6.108;2023-06-10T09:50:00;5.50;;;3.22;;
73650;SDS011;61944;52.538;6.108;2023-06-10T09:52:27;6.57;;;3.97;;
73650;SDS011;61944;52.538;6.108;2023-06-10T09:54:58;6.90;;;4.03;;
73650;SDS011;61944;52.538;6.108;2023-06-10T09:57:31;7.70;;;4.18;;
73650;SDS011;61944;52.538;6.108;2023-06-10T10:00:07;8.48;;;3.67;;
73650;SDS011;61944;52.538;6.108;2023-06-10T10:02:50;10.98;;;4.60;;
73650;SDS011;61944;52.538;6.108;2023-06-10T10:07:44;8.65;;;4.70;;
73650;SDS011;61944;52.538;6.108;2023-06-10T10:10:10;8.43;;;4.10;;
73650;SDS011;61944;52.538;6.108;2023-06-10T10:12:40;8.38;;;4.13;;
73650;SDS011;61944;52.538;6.108;2023-06-10T10:15:06;6.15;;;3.95;;
73650;SDS011;61944;52.538;6.108;2023-06-10T10:17:37;5.55;;;4.25;;
73650;SDS011;61944;52.538;6.108;2023-06-10T10:20:05;8.48;;;3.78;;
73650;SDS011;61944;52.538;6.108;2023-06-10T10:22:43;6.70;;;4.53;;
73650;SDS011;61944;52.538;6.108;2023-06-10T10:25:13;7.10;;;3.90;;
73650;SDS011;61944;52.538;6.108;2023-06-10T10:27:46;7.07;;;4.53;;
73650;SDS011;61944;52.538;6.108;2023-06-10T10:30:16;6.00;;;3.60;;
73650;SDS011;61944;52.538;6.108;2023-06-10T10:32:47;6.13;;;4.13;;
73650;SDS011;61944;52.538;6.108;2023-06-10T10:35:21;7.07;;;4.13;;
73650;SDS011;61944;52.538;6.108;2023-06-10T10:37:49;5.97;;;3.53;;
73650;SDS011;61944;52.538;6.108;2023-06-10T10:40:17;5.40;;;3.10;;
73650;SDS011;61944;52.538;6.108;2023-06-10T10:42:45;7.68;;;3.55;;
73650;SDS011;61944;52.538;6.108;2023-06-10T10:45:13;5.75;;;3.75;;
73650;SDS011;61944;52.538;6.108;2023-06-10T10:47:38;6.60;;;4.00;;
73650;SDS011;61944;52.538;6.108;2023-06-10T10:50:17;7.80;;;5.28;;
73650;SDS011;61944;52.538;6.108;2023-06-10T10:53:02;7.88;;;4.22;;
73650;SDS011;61944;52.538;6.108;2023-06-10T10:55:29;6.47;;;4.03;;
73650;SDS011;61944;52.538;6.108;2023-06-10T10:57:58;5.85;;;4.50;;
73650;SDS011;61944;52.538;6.108;2023-06-10T11:00:38;6.78;;;3.75;;
73650;SDS011;61944;52.538;6.108;2023-06-10T11:03:13;7.90;;;4.28;;
73650;SDS011;61944;52.538;6.108;2023-06-10T11:08:14;8.82;;;4.22;;
73650;SDS011;61944;52.538;6.108;2023-06-10T11:10:59;6.95;;;3.60;;
73650;SDS011;61944;52.538;6.108;2023-06-10T11:13:25;6.25;;;4.15;;
73650;SDS011;61944;52.538;6.108;2023-06-10T11:15:52;6.72;;;3.92;;
73650;SDS011;61944;52.538;6.108;2023-06-10T11:18:23;7.22;;;3.67;;
73650;SDS011;61944;52.538;6.108;2023-06-10T11:20:51;5.82;;;3.70;;
73650;SDS011;61944;52.538;6.108;2023-06-10T11:28:40;7.00;;;3.60;;
73650;SDS011;61944;52.538;6.108;2023-06-10T11:36:20;4.60;;;3.47;;
73650;SDS011;61944;52.538;6.108;2023-06-10T11:38:46;5.00;;;3.83;;
73650;SDS011;61944;52.538;6.108;2023-06-10T11:41:13;5.70;;;3.63;;
73650;SDS011;61944;52.538;6.108;2023-06-10T11:43:45;4.65;;;3.95;;
73650;SDS011;61944;52.538;6.108;2023-06-10T11:46:11;8.02;;;5.47;;
73650;SDS011;61944;52.538;6.108;2023-06-10T11:48:37;6.07;;;3.80;;
73650;SDS011;61944;52.538;6.108;2023-06-10T11:51:06;6.65;;;4.75;;
73650;SDS011;61944;52.538;6.108;2023-06-10T11:53:32;6.70;;;4.38;;
73650;SDS011;61944;52.538;6.108;2023-06-10T11:55:58;5.65;;;3.65;;
73650;SDS011;61944;52.538;6.108;2023-06-10T11:58:24;5.00;;;4.25;;
73650;SDS011;61944;52.538;6.108;2023-06-10T12:00:51;7.88;;;3.95;;
73650;SDS011;61944;52.538;6.108;2023-06-10T12:03:26;9.00;;;3.95;;
73650;SDS011;61944;52.538;6.108;2023-06-10T12:05:58;8.63;;;4.45;;
73650;SDS011;61944;52.538;6.108;2023-06-10T12:08:27;6.78;;;3.78;;
73650;SDS011;61944;52.538;6.108;2023-06-10T12:10:54;7.38;;;4.15;;
73650;SDS011;61944;52.538;6.108;2023-06-10T12:13:20;7.50;;;5.45;;
73650;SDS011;61944;52.538;6.108;2023-06-10T12:15:46;7.47;;;4.05;;
73650;SDS011;61944;52.538;6.108;2023-06-10T12:20:49;4.75;;;4.30;;
73650;SDS011;61944;52.538;6.108;2023-06-10T12:23:18;6.22;;;4.32;;
73650;SDS011;61944;52.538;6.108;2023-06-10T12:25:50;6.22;;;4.45;;
73650;SDS011;61944;52.538;6.108;2023-06-10T12:28:22;9.23;;;5.03;;
73650;SDS011;61944;52.538;6.108;2023-06-10T12:30:48;6.57;;;4.72;;
73650;SDS011;61944;52.538;6.108;2023-06-10T12:33:21;6.07;;;4.00;;
73650;SDS011;61944;52.538;6.108;2023-06-10T12:35:50;5.53;;;3.53;;
73650;SDS011;61944;52.538;6.108;2023-06-10T12:38:25;5.28;;;4.20;;
73650;SDS011;61944;52.538;6.108;2023-06-10T12:40:54;4.97;;;4.50;;
73650;SDS011;61944;52.538;6.108;2023-06-10T12:43:28;6.75;;;4.80;;
73650;SDS011;61944;52.538;6.108;2023-06-10T12:45:56;6.45;;;4.72;;
73650;SDS011;61944;52.538;6.108;2023-06-10T12:48:34;6.70;;;4.07;;
73650;SDS011;61944;52.538;6.108;2023-06-10T12:50:59;5.38;;;4.00;;
73650;SDS011;61944;52.538;6.108;2023-06-10T12:53:25;4.47;;;3.13;;
73650;SDS011;61944;52.538;6.108;2023-06-10T12:55:54;4.45;;;3.40;;
73650;SDS011;61944;52.538;6.108;2023-06-10T12:58:19;5.07;;;3.53;;
73650;SDS011;61944;52.538;6.108;2023-06-10T13:00:47;5.43;;;3.80;;
73650;SDS011;61944;52.538;6.108;2023-06-10T13:03:13;5.30;;;4.00;;
73650;SDS011;61944;52.538;6.108;2023-06-10T13:05:40;8.85;;;3.78;;
73650;SDS011;61944;52.538;6.108;2023-06-10T13:08:06;5.57;;;3.15;;
73650;SDS011;61944;52.538;6.108;2023-06-10T13:10:32;4.57;;;3.58;;
73650;SDS011;61944;52.538;6.108;2023-06-10T13:12:59;5.60;;;3.20;;
73650;SDS011;61944;52.538;6.108;2023-06-10T13:15:25;4.82;;;3.45;;
73650;SDS011;61944;52.538;6.108;2023-06-10T13:17:51;4.68;;;3.28;;
73650;SDS011;61944;52.538;6.108;2023-06-10T13:20:17;5.18;;;3.88;;
73650;SDS011;61944;52.538;6.108;2023-06-10T13:22:43;4.82;;;3.90;;
73650;SDS011;61944;52.538;6.108;2023-06-10T13:25:08;4.70;;;3.60;;
73650;SDS011;61944;52.538;6.108;2023-06-10T13:27:37;5.13;;;3.30;;
73650;SDS011;61944;52.538;6.108;2023-06-10T13:30:07;5.55;;;3.30;;
73650;SDS011;61944;52.538;6.108;2023-06-10T13:32:34;8.45;;;4.05;;
73650;SDS011;61944;52.538;6.108;2023-06-10T13:34:59;4.60;;;2.92;;
73650;SDS011;61944;52.538;6.108;2023-06-10T13:37:25;4.95;;;3.45;;
73650;SDS011;61944;52.538;6.108;2023-06-10T13:39:50;6.10;;;3.55;;
73650;SDS011;61944;52.538;6.108;2023-06-10T13:42:17;10.98;;;3.42;;
73650;SDS011;61944;52.538;6.108;2023-06-10T13:44:42;4.20;;;3.20;;
73650;SDS011;61944;52.538;6.108;2023-06-10T13:47:08;8.30;;;3.40;;
73650;SDS011;61944;52.538;6.108;2023-06-10T13:49:33;6.03;;;3.65;;
73650;SDS011;61944;52.538;6.108;2023-06-10T13:51:59;4.75;;;2.88;;
73650;SDS011;61944;52.538;6.108;2023-06-10T13:54:24;4.82;;;3.08;;
73650;SDS011;61944;52.538;6.108;2023-06-10T13:56:49;5.82;;;3.58;;
73650;SDS011;61944;52.538;6.108;2023-06-10T13:59:15;7.78;;;3.25;;
73650;SDS011;61944;52.538;6.108;2023-06-10T14:01:40;4.93;;;3.60;;
73650;SDS011;61944;52.538;6.108;2023-06-10T14:04:06;4.20;;;2.97;;
73650;SDS011;61944;52.538;6.108;2023-06-10T14:06:32;4.45;;;3.63;;
73650;SDS011;61944;52.538;6.108;2023-06-10T14:08:58;5.85;;;3.40;;
73650;SDS011;61944;52.538;6.108;2023-06-10T14:11:24;5.55;;;4.03;;
73650;SDS011;61944;52.538;6.108;2023-06-10T14:13:49;4.25;;;3.00;;
73650;SDS011;61944;52.538;6.108;2023-06-10T14:16:15;4.90;;;3.10;;
73650;SDS011;61944;52.538;6.108;2023-06-10T14:18:40;4.18;;;2.97;;
73650;SDS011;61944;52.538;6.108;2023-06-10T14:21:05;5.07;;;3.65;;
73650;SDS011;61944;52.538;6.108;2023-06-10T14:23:31;4.15;;;3.08;;
73650;SDS011;61944;52.538;6.108;2023-06-10T14:25:56;3.55;;;3.03;;
73650;SDS011;61944;52.538;6.108;2023-06-10T14:28:21;3.78;;;3.13;;
73650;SDS011;61944;52.538;6.108;2023-06-10T14:30:48;7.93;;;3.75;;
73650;SDS011;61944;52.538;6.108;2023-06-10T14:33:14;5.43;;;4.25;;
73650;SDS011;61944;52.538;6.108;2023-06-10T14:35:41;5.40;;;3.17;;
73650;SDS011;61944;52.538;6.108;2023-06-10T14:38:08;7.70;;;3.17;;
73650;SDS011;61944;52.538;6.108;2023-06-10T14:40:33;3.30;;;3.00;;
73650;SDS011;61944;52.538;6.108;2023-06-10T14:42:59;4.43;;;3.10;;
73650;SDS011;61944;52.538;6.108;2023-06-10T14:45:26;4.80;;;3.38;;
73650;SDS011;61944;52.538;6.108;2023-06-10T14:47:51;5.57;;;3.70;;
73650;SDS011;61944;52.538;6.108;2023-06-10T14:50:17;3.97;;;3.13;;
73650;SDS011;61944;52.538;6.108;2023-06-10T14:52:42;3.70;;;3.10;;
73650;SDS011;61944;52.538;6.108;2023-06-10T14:55:08;3.60;;;3.30;;
73650;SDS011;61944;52.538;6.108;2023-06-10T14:57:33;6.07;;;3.75;;
73650;SDS011;61944;52.538;6.108;2023-06-10T14:59:59;4.57;;;3.50;;
73650;SDS011;61944;52.538;6.108;2023-06-10T15:02:24;7.32;;;3.33;;
73650;SDS011;61944;52.538;6.108;2023-06-10T15:04:50;6.25;;;3.90;;
73650;SDS011;61944;52.538;6.108;2023-06-10T15:07:18;3.60;;;3.28;;
73650;SDS011;61944;52.538;6.108;2023-06-10T15:09:44;5.38;;;3.53;;
73650;SDS011;61944;52.538;6.108;2023-06-10T15:12:09;4.18;;;3.08;;
73650;SDS011;61944;52.538;6.108;2023-06-10T15:14:36;4.35;;;3.28;;